Time;durP1;ratioP1;P1;durP2;ratioP2;P2;SDS_P1;SDS_P2;PMS_P1;PMS_P2;Temp;Humidity;BMP_temperature;BMP_pressure;BME280_temperature;BME280_humidity;BME280_pressure;Samples;Min_cycle;Max_cycle;Signal;HPM_P1;HPM_P2
2021/01/25 00:02:21;;;;;;;24.47;20.13;;;5.50;77.90;;;;;;5051074;28;20037;-75
2021/01/25 00:04:47;;;;;;;22.30;19.80;;;5.50;78.10;;;;;;5034277;28;20033;-76
2021/01/25 00:07:13;;;;;;;24.83;20.20;;;5.50;77.90;;;;;;5051152;28;20026;-75
2021/01/25 00:09:38;;;;;;;21.53;19.10;;;5.50;77.80;;;;;;5052512;28;20035;-75
2021/01/25 00:12:04;;;;;;;22.33;20.03;;;5.60;77.50;;;;;;5053314;28;20044;-75
2021/01/25 00:14:30;;;;;;;20.40;18.27;;;5.60;77.40;;;;;;5053527;28;20035;-76
2021/01/25 00:16:55;;;;;;;23.17;19.07;;;5.50;77.40;;;;;;5034979;28;20120;-76
2021/01/25 00:19:21;;;;;;;23.43;19.23;;;5.40;78.30;;;;;;5051906;28;20071;-76
2021/01/25 00:21:47;;;;;;;27.53;21.30;;;5.40;77.90;;;;;;5051777;28;20044;-75
2021/01/25 00:24:13;;;;;;;23.67;20.63;;;5.40;77.80;;;;;;5035681;28;20474;-75
2021/01/25 00:26:38;;;;;;;24.20;19.80;;;5.50;77.80;;;;;;5053174;28;20044;-75
2021/01/25 00:29:04;;;;;;;24.27;19.27;;;5.50;77.50;;;;;;5035340;28;20025;-75
2021/01/25 00:31:30;;;;;;;22.60;19.83;;;5.50;78.20;;;;;;5050492;28;20557;-77
2021/01/25 00:33:56;;;;;;;20.93;18.70;;;5.50;78.20;;;;;;5050762;28;20592;-76
2021/01/25 00:36:21;;;;;;;24.47;20.50;;;5.50;77.90;;;;;;5052563;28;20116;-75
2021/01/25 00:38:47;;;;;;;25.10;20.10;;;5.50;78.20;;;;;;5052092;28;20390;-75
2021/01/25 00:41:12;;;;;;;22.23;19.47;;;5.60;78.00;;;;;;5053038;28;20086;-76
2021/01/25 00:43:38;;;;;;;22.33;19.60;;;5.60;77.40;;;;;;5051938;28;20389;-75
2021/01/25 00:46:03;;;;;;;21.23;18.97;;;5.60;77.20;;;;;;5052364;28;20029;-76
2021/01/25 00:48:29;;;;;;;24.33;19.73;;;5.60;77.50;;;;;;5051820;28;20037;-76
2021/01/25 00:50:55;;;;;;;23.13;19.77;;;5.70;77.40;;;;;;5050588;28;20431;-76
2021/01/25 00:53:20;;;;;;;23.03;20.60;;;5.70;76.90;;;;;;5050463;28;20025;-76
2021/01/25 00:55:46;;;;;;;24.60;19.77;;;5.60;77.20;;;;;;5035031;28;20115;-75
2021/01/25 00:58:11;;;;;;;28.13;21.07;;;5.60;77.10;;;;;;5053024;28;20039;-75
2021/01/25 01:00:37;;;;;;;24.53;19.97;;;5.70;76.90;;;;;;5051595;28;20078;-75
2021/01/25 01:03:03;;;;;;;22.90;19.63;;;5.60;77.00;;;;;;5051192;28;20029;-76
2021/01/25 01:05:29;;;;;;;27.00;22.50;;;5.50;77.20;;;;;;5051710;28;20033;-76
2021/01/25 01:07:55;;;;;;;24.90;21.40;;;5.60;77.30;;;;;;5051747;28;20029;-76
2021/01/25 01:10:20;;;;;;;24.87;20.57;;;5.70;77.30;;;;;;5051468;28;20044;-76
2021/01/25 01:12:46;;;;;;;27.90;21.13;;;5.60;77.20;;;;;;5050463;28;20052;-76
2021/01/25 01:15:12;;;;;;;29.60;22.63;;;5.70;77.20;;;;;;5051905;28;20033;-75
2021/01/25 01:17:41;;;;;;;26.07;21.97;;;5.80;77.00;;;;;;5053702;28;20029;-75
2021/01/25 01:20:07;;;;;;;24.40;20.40;;;5.80;76.60;;;;;;5056665;28;20032;-75
2021/01/25 01:22:33;;;;;;;25.63;20.40;;;5.80;76.50;;;;;;5056148;28;20029;-76
2021/01/25 01:24:59;;;;;;;27.50;22.20;;;5.60;76.70;;;;;;5038359;28;20501;-76
2021/01/25 01:27:24;;;;;;;26.77;21.10;;;5.60;77.40;;;;;;5055792;28;20036;-76
2021/01/25 01:29:52;;;;;;;29.57;22.90;;;5.40;78.40;;;;;;5053819;28;20033;-75
2021/01/25 01:32:18;;;;;;;30.67;23.43;;;5.50;78.50;;;;;;5053884;28;20454;-76
2021/01/25 01:34:44;;;;;;;30.87;24.60;;;5.70;77.80;;;;;;5053931;28;20029;-76
2021/01/25 01:37:10;;;;;;;30.57;24.07;;;5.70;77.50;;;;;;5055120;28;20036;-77
2021/01/25 01:39:35;;;;;;;29.80;23.57;;;5.80;77.40;;;;;;5055603;28;20028;-76
2021/01/25 01:42:01;;;;;;;32.60;25.33;;;5.80;77.40;;;;;;5054954;28;20389;-76
2021/01/25 01:44:26;;;;;;;31.53;24.80;;;5.80;77.30;;;;;;5055935;28;20040;-75
2021/01/25 01:46:52;;;;;;;30.63;25.73;;;5.80;77.40;;;;;;5056194;28;20511;-75
2021/01/25 01:49:18;;;;;;;33.83;26.70;;;5.70;77.30;;;;;;5036627;28;20048;-77
2021/01/25 01:51:43;;;;;;;32.90;26.43;;;5.70;77.20;;;;;;5036854;28;20056;-76
2021/01/25 01:54:09;;;;;;;31.17;25.33;;;5.40;77.90;;;;;;5037152;28;20608;-76
2021/01/25 01:56:34;;;;;;;28.73;22.30;;;5.10;79.00;;;;;;5037133;28;20032;-75
2021/01/25 01:59:00;;;;;;;31.57;24.50;;;4.70;80.50;;;;;;5037419;28;20021;-75
2021/01/25 02:01:26;;;;;;;39.27;30.13;;;4.10;83.10;;;;;;5054309;28;20036;-75
2021/01/25 02:03:52;;;;;;;53.27;36.70;;;3.80;84.60;;;;;;5038224;28;20482;-75
2021/01/25 02:06:18;;;;;;;54.00;38.23;;;3.50;86.10;;;;;;5037400;28;20045;-75
2021/01/25 02:08:43;;;;;;;58.17;38.90;;;3.40;86.70;;;;;;5053328;28;20144;-75
2021/01/25 02:11:09;;;;;;;55.23;36.83;;;3.50;86.70;;;;;;5036573;28;20024;-75
2021/01/25 02:13:34;;;;;;;45.90;35.43;;;3.50;86.70;;;;;;5053108;28;20057;-75
2021/01/25 02:16:00;;;;;;;50.07;36.17;;;3.50;86.70;;;;;;5054273;28;20040;-77
2021/01/25 02:18:27;;;;;;;47.07;33.77;;;3.60;86.80;;;;;;5053245;28;20033;-75
2021/01/25 02:20:53;;;;;;;44.33;34.60;;;3.70;85.90;;;;;;5053091;28;20036;-75
2021/01/25 02:23:46;;;;;;;47.23;33.53;;;3.90;85.70;;;;;;5037409;28;20381;-75
2021/01/25 02:26:20;;;;;;;40.90;30.33;;;4.10;85.20;;;;;;5054471;28;20086;-75
2021/01/25 02:28:46;;;;;;;38.77;29.53;;;4.10;84.40;;;;;;5054205;28;20449;-75
2021/01/25 02:31:11;;;;;;;38.60;29.20;;;4.20;84.10;;;;;;5037003;28;20052;-78
2021/01/25 02:33:44;;;;;;;47.17;31.80;;;4.20;84.10;;;;;;5052868;28;20021;-77
2021/01/25 02:36:10;;;;;;;38.63;31.27;;;4.40;83.90;;;;;;5036535;28;20051;-78
2021/01/25 02:38:37;;;;;;;34.23;30.40;;;4.60;83.20;;;;;;5052511;28;20458;-75
2021/01/25 02:41:02;;;;;;;38.03;31.63;;;4.60;82.30;;;;;;5036396;28;20399;-77
2021/01/25 02:43:28;;;;;;;41.87;32.57;;;4.70;82.40;;;;;;5037388;28;20104;-76
2021/01/25 02:45:53;;;;;;;37.50;31.57;;;4.70;82.00;;;;;;5037645;28;20025;-74
2021/01/25 02:48:19;;;;;;;38.20;30.83;;;4.90;81.60;;;;;;5035881;28;20037;-74
2021/01/25 02:50:49;;;;;;;37.57;28.70;;;5.00;81.40;;;;;;5052755;28;20125;-77
2021/01/25 02:53:15;;;;;;;34.85;28.10;;;5.00;81.10;;;;;;5052958;28;20055;-76
2021/01/25 02:55:40;;;;;;;32.80;26.43;;;5.10;80.70;;;;;;5036403;28;20029;-75
2021/01/25 02:58:06;;;;;;;34.73;27.67;;;5.20;80.30;;;;;;5036078;28;20033;-76
2021/01/25 03:00:31;;;;;;;28.53;25.43;;;5.30;80.10;;;;;;5052361;28;20116;-78
2021/01/25 03:02:57;;;;;;;29.83;25.10;;;5.40;79.90;;;;;;5035553;28;20386;-76
2021/01/25 03:05:23;;;;;;;26.63;23.37;;;5.40;79.50;;;;;;5035308;28;20116;-77
2021/01/25 03:07:50;;;;;;;28.13;24.27;;;5.30;79.10;;;;;;5052487;28;20021;-75
2021/01/25 03:10:15;;;;;;;28.13;23.80;;;5.40;79.20;;;;;;5035630;28;20031;-76
2021/01/25 03:12:41;;;;;;;25.43;22.33;;;5.50;78.80;;;;;;5035600;28;20522;-76
2021/01/25 03:15:07;;;;;;;26.90;24.00;;;5.40;78.60;;;;;;5035715;28;20032;-75
2021/01/25 03:17:33;;;;;;;28.83;24.30;;;5.30;78.80;;;;;;5037100;28;20102;-75
2021/01/25 03:19:59;;;;;;;30.07;26.47;;;5.30;79.00;;;;;;5053088;28;20044;-76
2021/01/25 03:22:24;;;;;;;30.23;25.33;;;5.40;79.10;;;;;;5054567;28;20444;-75
2021/01/25 03:24:50;;;;;;;30.00;25.90;;;5.50;78.70;;;;;;5052273;28;20041;-76
2021/01/25 03:27:16;;;;;;;29.07;25.40;;;5.60;78.20;;;;;;5035867;28;20033;-75
2021/01/25 03:29:41;;;;;;;28.33;25.03;;;5.60;78.50;;;;;;5052965;28;20029;-75
2021/01/25 03:32:07;;;;;;;27.80;24.77;;;5.40;78.60;;;;;;5052976;28;20042;-75
2021/01/25 03:34:32;;;;;;;35.97;28.30;;;5.30;79.30;;;;;;5052263;28;20433;-76
2021/01/25 03:36:58;;;;;;;30.80;26.40;;;5.30;79.20;;;;;;5051528;28;20036;-76
2021/01/25 03:39:24;;;;;;;30.30;27.10;;;5.40;79.10;;;;;;5051338;28;20029;-77
2021/01/25 03:41:49;;;;;;;33.17;29.43;;;5.50;79.00;;;;;;5052787;28;20029;-76
2021/01/25 03:44:15;;;;;;;36.27;30.40;;;5.60;78.80;;;;;;5053272;28;20025;-76
2021/01/25 03:46:45;;;;;;;38.43;30.00;;;5.40;78.80;;;;;;5053431;28;20442;-75
2021/01/25 03:49:12;;;;;;;37.10;30.27;;;5.40;78.80;;;;;;5036598;28;20060;-75
2021/01/25 03:51:37;;;;;;;30.03;27.00;;;5.50;78.60;;;;;;5052725;28;20029;-75
2021/01/25 03:54:03;;;;;;;30.37;27.03;;;5.40;78.60;;;;;;5052789;28;20025;-76
2021/01/25 03:56:28;;;;;;;32.60;29.10;;;5.50;78.50;;;;;;5052284;28;20508;-75
2021/01/25 03:58:54;;;;;;;31.07;27.10;;;5.50;78.50;;;;;;5035593;28;20108;-76
2021/01/25 04:01:20;;;;;;;31.97;28.30;;;5.60;78.60;;;;;;5052666;28;20083;-76
2021/01/25 04:03:45;;;;;;;35.30;29.17;;;5.50;78.50;;;;;;5051857;28;20051;-75
2021/01/25 04:06:11;;;;;;;36.10;30.43;;;5.40;78.40;;;;;;5053472;28;20021;-75
2021/01/25 04:08:36;;;;;;;35.03;28.80;;;5.40;78.60;;;;;;5053563;28;20501;-75
2021/01/25 04:11:02;;;;;;;32.13;27.43;;;5.30;79.10;;;;;;5053096;28;20040;-76
2021/01/25 04:13:27;;;;;;;32.67;26.37;;;5.30;79.60;;;;;;5051126;28;20382;-76
2021/01/25 04:15:53;;;;;;;31.33;27.97;;;5.10;80.20;;;;;;5052287;28;20178;-77
2021/01/25 04:18:19;;;;;;;28.40;24.83;;;5.00;80.20;;;;;;5050791;28;20032;-76
2021/01/25 04:20:44;;;;;;;29.07;25.47;;;4.60;82.20;;;;;;5052528;28;20386;-75
2021/01/25 04:23:10;;;;;;;26.83;23.93;;;4.40;83.20;;;;;;5051772;28;20036;-76
2021/01/25 04:25:35;;;;;;;27.23;23.77;;;4.50;82.70;;;;;;5052117;28;20142;-76
2021/01/25 04:28:01;;;;;;;29.73;26.10;;;4.70;82.30;;;;;;5052052;28;20056;-75
2021/01/25 04:30:27;;;;;;;27.90;25.13;;;4.90;81.80;;;;;;5035472;28;20089;-75
2021/01/25 04:32:52;;;;;;;28.47;24.67;;;5.00;80.60;;;;;;5053317;28;20112;-75
2021/01/25 04:35:18;;;;;;;31.30;25.87;;;4.80;80.80;;;;;;5035553;28;20386;-75
2021/01/25 04:37:44;;;;;;;27.93;24.97;;;4.50;82.90;;;;;;5053364;28;20021;-76
2021/01/25 04:40:10;;;;;;;28.80;25.47;;;4.40;83.70;;;;;;5035000;28;20025;-76
2021/01/25 04:42:36;;;;;;;28.37;25.07;;;4.10;84.70;;;;;;5052365;28;20029;-77
2021/01/25 04:45:06;;;;;;;27.23;24.33;;;3.90;86.20;;;;;;5050708;28;20137;-76
2021/01/25 04:47:32;;;;;;;32.67;26.83;;;3.70;87.80;;;;;;5050381;28;20071;-76
2021/01/25 04:49:57;;;;;;;32.70;26.77;;;3.70;87.80;;;;;;5052157;28;20025;-75
2021/01/25 04:52:23;;;;;;;37.90;30.40;;;3.70;88.00;;;;;;5052370;28;20108;-76
2021/01/25 04:54:48;;;;;;;38.23;30.97;;;3.80;87.50;;;;;;5055880;28;20064;-75
2021/01/25 04:57:15;;;;;;;55.40;37.87;;;3.80;87.20;;;;;;5055446;28;20036;-75
2021/01/25 04:59:44;;;;;;;49.77;38.37;;;3.60;88.30;;;;;;5055951;28;20025;-75
2021/01/25 05:02:09;;;;;;;53.13;41.93;;;3.50;88.60;;;;;;5055704;28;20036;-76
2021/01/25 05:04:35;;;;;;;52.37;40.67;;;3.40;89.00;;;;;;5055314;28;20378;-76
2021/01/25 05:07:01;;;;;;;53.27;41.20;;;3.40;89.00;;;;;;5054479;28;20067;-76
2021/01/25 05:09:26;;;;;;;56.30;42.50;;;3.40;89.50;;;;;;5056506;28;20096;-75
2021/01/25 05:12:02;;;;;;;62.07;45.70;;;3.40;89.50;;;;;;5056892;28;20371;-75
2021/01/25 05:14:40;;;;;;;66.60;47.53;;;3.30;90.00;;;;;;5038808;28;20052;-75
2021/01/25 05:17:10;;;;;;;80.73;53.33;;;3.20;90.10;;;;;;5038325;28;20032;-76
2021/01/25 05:19:37;;;;;;;110.50;59.63;;;3.10;90.00;;;;;;5054176;28;20029;-76
2021/01/25 05:22:08;;;;;;;107.13;62.27;;;2.90;90.50;;;;;;5055365;28;20033;-77
2021/01/25 05:24:42;;;;;;;108.57;61.60;;;2.90;90.80;;;;;;5037583;28;20036;-76
2021/01/25 05:27:08;;;;;;;114.30;58.57;;;2.80;90.90;;;;;;5055067;28;20033;-77
2021/01/25 05:29:33;;;;;;;111.63;57.57;;;2.80;91.20;;;;;;5055148;28;20541;-75
2021/01/25 05:31:59;;;;;;;92.23;47.93;;;2.70;91.10;;;;;;5038491;28;20056;-75
2021/01/25 05:34:25;;;;;;;110.67;59.77;;;2.60;91.10;;;;;;5056074;28;20108;-76
2021/01/25 05:36:50;;;;;;;91.57;52.07;;;2.60;91.40;;;;;;5054170;28;20033;-77
2021/01/25 05:39:19;;;;;;;73.30;41.77;;;2.60;90.90;;;;;;5054722;28;20032;-77
2021/01/25 05:41:55;;;;;;;63.53;40.87;;;2.50;90.70;;;;;;5053575;28;20067;-77
2021/01/25 05:44:20;;;;;;;69.07;41.83;;;2.50;90.60;;;;;;5037166;28;20040;-76
2021/01/25 05:46:46;;;;;;;60.23;37.67;;;2.60;90.50;;;;;;5054655;28;20029;-77
2021/01/25 05:49:12;;;;;;;71.60;42.20;;;2.50;90.40;;;;;;5054598;28;20175;-77
2021/01/25 05:51:39;;;;;;;64.87;40.50;;;2.50;90.30;;;;;;5038295;28;20132;-76
2021/01/25 05:54:05;;;;;;;68.43;41.63;;;2.60;90.30;;;;;;5054886;28;20112;-76
2021/01/25 05:56:30;;;;;;;67.80;41.37;;;2.70;90.00;;;;;;5054374;28;20052;-76
2021/01/25 05:58:56;;;;;;;72.27;39.90;;;2.80;89.50;;;;;;5054121;28;20025;-77
2021/01/25 06:01:22;;;;;;;70.60;41.43;;;2.80;89.30;;;;;;5054609;28;20040;-76
2021/01/25 06:03:48;;;;;;;70.20;38.70;;;2.90;89.30;;;;;;5054645;28;20033;-76
2021/01/25 06:06:24;;;;;;;70.30;40.70;;;2.90;88.80;;;;;;5037661;28;20036;-76
2021/01/25 06:08:52;;;;;;;69.50;40.40;;;3.10;88.70;;;;;;5038531;28;20108;-76
2021/01/25 06:11:22;;;;;;;71.17;41.23;;;3.10;87.80;;;;;;5055852;28;20024;-76
2021/01/25 06:13:57;;;;;;;67.00;40.80;;;3.20;87.80;;;;;;5054662;28;20045;-76
2021/01/25 06:16:26;;;;;;;61.43;38.53;;;3.10;87.60;;;;;;5037919;28;20090;-76
2021/01/25 06:18:54;;;;;;;66.67;41.53;;;3.10;87.70;;;;;;5037785;28;20037;-75
2021/01/25 06:21:22;;;;;;;57.73;38.53;;;3.10;88.20;;;;;;5038240;28;20075;-76
2021/01/25 06:23:48;;;;;;;66.97;41.70;;;2.90;87.70;;;;;;5037804;28;20061;-75
2021/01/25 06:26:14;;;;;;;62.10;39.67;;;2.90;88.40;;;;;;5037532;28;20482;-75
2021/01/25 06:28:40;;;;;;;60.23;38.73;;;2.90;88.50;;;;;;5055558;28;20029;-76
2021/01/25 06:31:06;;;;;;;65.17;42.03;;;2.80;89.10;;;;;;5037892;28;20040;-76
2021/01/25 06:33:36;;;;;;;65.20;42.10;;;2.80;89.10;;;;;;5055502;28;20032;-76
2021/01/25 06:36:05;;;;;;;62.25;40.90;;;2.80;89.50;;;;;;5038394;28;20033;-76
2021/01/25 06:38:33;;;;;;;57.43;39.30;;;2.80;89.20;;;;;;5054213;28;20081;-76
2021/01/25 06:41:06;;;;;;;60.97;42.17;;;2.90;88.90;;;;;;5053999;28;20025;-76
2021/01/25 06:43:33;;;;;;;61.43;41.53;;;2.90;88.60;;;;;;5039190;28;20033;-76
2021/01/25 06:45:59;;;;;;;58.37;41.87;;;2.90;88.20;;;;;;5052060;28;20385;-77
2021/01/25 06:48:24;;;;;;;56.93;41.77;;;2.90;88.60;;;;;;5049601;28;20044;-77
2021/01/25 06:50:50;;;;;;;65.13;43.17;;;2.90;88.50;;;;;;5035345;28;20463;-76
2021/01/25 06:53:15;;;;;;;60.63;41.10;;;3.10;88.20;;;;;;5033809;28;20029;-77
2021/01/25 06:55:42;;;;;;;54.97;41.33;;;3.10;88.00;;;;;;5035002;28;20025;-81
2021/01/25 06:58:12;;;;;;;59.33;43.07;;;3.00;87.80;;;;;;5047293;28;20104;-76
2021/01/25 07:00:38;;;;;;;61.00;44.07;;;2.90;88.40;;;;;;5042330;28;20014;-75
2021/01/25 07:03:05;;;;;;;56.43;38.23;;;2.90;88.80;;;;;;5052907;28;20436;-75
2021/01/25 07:05:32;;;;;;;55.87;42.73;;;2.80;88.80;;;;;;5034267;28;20974;-75
2021/01/25 07:08:23;;;;;;;60.27;43.73;;;2.80;89.50;;;;;;5036276;28;20021;-75
2021/01/25 07:10:49;;;;;;;58.53;41.70;;;2.80;89.90;;;;;;5052651;28;20029;-75
2021/01/25 07:13:15;;;;;;;53.13;42.63;;;2.80;90.00;;;;;;5053884;28;20048;-76
2021/01/25 07:15:41;;;;;;;54.60;42.57;;;2.80;90.00;;;;;;5035828;28;20021;-75
2021/01/25 07:18:06;;;;;;;48.03;38.80;;;2.80;89.50;;;;;;5052586;28;20033;-76
2021/01/25 07:20:32;;;;;;;55.27;42.53;;;2.80;89.20;;;;;;5031233;28;20026;-76
2021/01/25 07:22:57;;;;;;;46.80;39.83;;;2.80;89.60;;;;;;5033078;28;20107;-77
2021/01/25 07:25:23;;;;;;;46.23;35.50;;;2.70;89.90;;;;;;5035740;28;20108;-75
2021/01/25 07:27:49;;;;;;;52.40;40.53;;;2.80;90.10;;;;;;5035274;28;20086;-76
2021/01/25 07:30:14;;;;;;;51.13;38.53;;;2.70;90.00;;;;;;5045283;28;20489;-75
2021/01/25 07:32:40;;;;;;;48.20;39.27;;;2.70;90.00;;;;;;5029995;28;20102;-78
2021/01/25 07:35:06;;;;;;;47.80;37.77;;;2.80;89.20;;;;;;5040646;28;20063;-80
2021/01/25 07:37:32;;;;;;;45.27;37.50;;;2.90;89.20;;;;;;5041314;28;20426;-79
2021/01/25 07:39:57;;;;;;;44.07;37.07;;;2.90;88.90;;;;;;5040584;28;20115;-78
2021/01/25 07:42:23;;;;;;;42.83;36.73;;;2.90;88.80;;;;;;5032606;28;20415;-79
2021/01/25 07:44:49;;;;;;;43.07;35.40;;;2.90;88.10;;;;;;5021936;28;20549;-77
2021/01/25 07:47:19;;;;;;;35.73;30.97;;;2.90;88.30;;;;;;5036277;28;20032;-79
2021/01/25 07:49:44;;;;;;;30.20;25.50;;;2.80;87.40;;;;;;5020040;28;20390;-78
2021/01/25 07:52:16;;;;;;;27.07;24.17;;;2.80;85.60;;;;;;5058196;28;20534;-76
2021/01/25 07:54:47;;;;;;;30.23;26.33;;;2.70;84.90;;;;;;5059206;28;20072;-78
2021/01/25 07:57:21;;;;;;;29.50;25.97;;;2.80;85.70;;;;;;5044629;28;20086;-76
2021/01/25 07:59:46;;;;;;;32.00;28.37;;;2.70;85.60;;;;;;5021310;28;20032;-76
2021/01/25 08:02:12;;;;;;;34.13;28.67;;;2.70;85.60;;;;;;5040578;28;20033;-79
2021/01/25 08:04:39;;;;;;;34.03;28.77;;;2.80;85.80;;;;;;5030382;28;20032;-77
2021/01/25 08:07:05;;;;;;;36.83;29.30;;;2.80;85.80;;;;;;5047703;28;20024;-75
2021/01/25 08:09:33;;;;;;;32.13;27.33;;;2.90;85.70;;;;;;5035852;28;20025;-75
2021/01/25 08:11:59;;;;;;;41.20;33.57;;;2.90;84.20;;;;;;5051665;28;20025;-77
2021/01/25 08:14:39;;;;;;;42.30;33.77;;;2.80;85.20;;;;;;5051756;28;20060;-77
2021/01/25 08:17:07;;;;;;;37.80;32.50;;;2.80;85.80;;;;;;5035456;28;20064;-75
2021/01/25 08:19:44;;;;;;;38.30;32.77;;;2.90;85.30;;;;;;5051922;28;20082;-75
2021/01/25 08:22:16;;;;;;;42.00;33.73;;;2.90;85.60;;;;;;5041580;28;20124;-75
2021/01/25 08:24:42;;;;;;;38.30;33.50;;;2.90;85.10;;;;;;5035139;28;20021;-75
2021/01/25 08:27:15;;;;;;;39.53;31.57;;;3.00;84.60;;;;;;5033721;28;20021;-75
2021/01/25 08:29:41;;;;;;;39.00;32.67;;;3.00;84.20;;;;;;5034700;28;20534;-75
2021/01/25 08:32:43;;;;;;;38.47;33.47;;;2.80;84.40;;;;;;5035124;28;20108;-75
2021/01/25 08:35:09;;;;;;;40.97;33.27;;;2.70;85.60;;;;;;5051863;28;20032;-75
2021/01/25 08:37:35;;;;;;;38.23;31.97;;;2.70;85.60;;;;;;5051203;28;20030;-76
2021/01/25 08:40:20;;;;;;;41.17;31.63;;;2.60;85.30;;;;;;5035224;28;20100;-75
2021/01/25 08:42:46;;;;;;;38.00;32.17;;;2.50;85.90;;;;;;5052783;28;20080;-76
2021/01/25 08:45:26;;;;;;;38.53;32.57;;;2.40;86.00;;;;;;5035307;28;20461;-76
2021/01/25 08:47:51;;;;;;;41.27;31.83;;;2.50;86.20;;;;;;5051495;28;20450;-76
2021/01/25 08:50:19;;;;;;;41.00;31.90;;;2.50;86.30;;;;;;5027986;28;20071;-76
2021/01/25 08:52:44;;;;;;;47.43;31.37;;;2.50;86.00;;;;;;5044790;28;20029;-76
2021/01/25 08:55:11;;;;;;;35.93;28.67;;;2.50;86.20;;;;;;5052437;28;20390;-76
2021/01/25 08:57:41;;;;;;;33.60;28.80;;;2.50;85.90;;;;;;5050552;28;20461;-77
2021/01/25 09:00:30;;;;;;;37.37;29.20;;;2.60;85.30;;;;;;5034467;28;20409;-75
2021/01/25 09:03:14;;;;;;;37.93;29.13;;;2.60;86.10;;;;;;5051402;28;20407;-76
2021/01/25 09:05:40;;;;;;;38.20;31.57;;;2.60;86.30;;;;;;5034710;28;20013;-79
2021/01/25 09:08:06;;;;;;;41.33;31.93;;;2.70;85.90;;;;;;5034693;28;20082;-76
2021/01/25 09:10:31;;;;;;;41.43;32.10;;;2.70;85.80;;;;;;5034631;28;20104;-78
2021/01/25 09:12:57;;;;;;;36.77;30.63;;;2.70;85.50;;;;;;5049220;28;20044;-76
2021/01/25 09:15:23;;;;;;;40.57;32.10;;;2.60;85.30;;;;;;5034673;28;20474;-76
2021/01/25 09:17:49;;;;;;;37.47;29.70;;;2.60;86.00;;;;;;5052463;28;20037;-76
2021/01/25 09:20:15;;;;;;;42.83;32.03;;;2.60;85.70;;;;;;5047294;28;20063;-76
2021/01/25 09:22:41;;;;;;;39.17;30.50;;;2.60;85.70;;;;;;5043803;28;20114;-76
2021/01/25 09:25:07;;;;;;;41.60;31.97;;;2.60;86.20;;;;;;5030312;28;20017;-76
2021/01/25 09:27:33;;;;;;;38.27;30.73;;;2.70;85.80;;;;;;5031006;28;20071;-76
2021/01/25 09:29:58;;;;;;;38.20;32.07;;;2.70;85.40;;;;;;5050649;28;20458;-77
2021/01/25 09:32:24;;;;;;;42.07;33.33;;;2.90;85.80;;;;;;5033903;28;20044;-76
2021/01/25 09:34:49;;;;;;;39.87;33.00;;;3.00;85.30;;;;;;5034552;28;20029;-76
2021/01/25 09:37:15;;;;;;;40.90;33.50;;;3.10;84.10;;;;;;5047031;28;20078;-76
2021/01/25 09:39:40;;;;;;;42.00;33.87;;;3.10;84.10;;;;;;5054513;28;20387;-76
2021/01/25 09:42:06;;;;;;;41.10;33.97;;;3.20;84.40;;;;;;5037368;28;20037;-77
2021/01/25 09:44:34;;;;;;;38.17;32.33;;;3.20;84.00;;;;;;5054382;28;20032;-76
2021/01/25 09:46:59;;;;;;;41.90;34.37;;;3.20;83.70;;;;;;5053232;28;20108;-77
2021/01/25 09:49:25;;;;;;;42.57;33.70;;;3.00;84.90;;;;;;5054180;28;20179;-76
2021/01/25 09:51:51;;;;;;;40.97;33.30;;;3.10;84.70;;;;;;5051391;28;20473;-76
2021/01/25 09:54:17;;;;;;;43.77;33.67;;;3.10;84.60;;;;;;5055572;28;20036;-76
2021/01/25 09:56:43;;;;;;;41.33;32.50;;;3.10;85.40;;;;;;5054538;28;20048;-76
2021/01/25 09:59:08;;;;;;;40.83;32.13;;;3.20;85.20;;;;;;5054599;28;20021;-76
2021/01/25 10:01:34;;;;;;;37.67;32.80;;;3.30;84.30;;;;;;5049404;28;20389;-76
2021/01/25 10:04:00;;;;;;;43.80;34.00;;;3.30;84.50;;;;;;5054503;28;20484;-76
2021/01/25 10:06:28;;;;;;;45.77;33.87;;;3.30;85.50;;;;;;5050885;28;20032;-77
2021/01/25 10:08:56;;;;;;;39.70;31.13;;;3.30;85.90;;;;;;5054697;28;20488;-76
2021/01/25 10:11:22;;;;;;;35.67;30.03;;;3.20;86.30;;;;;;5054207;28;20036;-76
2021/01/25 10:13:48;;;;;;;40.57;31.87;;;3.30;84.90;;;;;;5053528;28;20086;-76
2021/01/25 10:16:14;;;;;;;40.10;30.43;;;3.40;84.80;;;;;;5036820;28;20049;-76
2021/01/25 10:18:39;;;;;;;42.43;31.40;;;3.50;83.90;;;;;;5055182;28;20033;-76
2021/01/25 10:21:05;;;;;;;35.20;29.40;;;3.50;83.60;;;;;;5052783;28;20029;-77
2021/01/25 10:23:31;;;;;;;35.23;27.97;;;3.40;83.60;;;;;;5052338;28;20033;-76
2021/01/25 10:25:56;;;;;;;38.77;28.27;;;3.40;84.00;;;;;;5054676;28;20033;-76
2021/01/25 10:28:22;;;;;;;35.77;28.07;;;3.50;83.70;;;;;;5052235;28;20428;-76
2021/01/25 10:30:48;;;;;;;32.07;25.80;;;3.50;84.40;;;;;;5032169;28;20025;-76
2021/01/25 10:33:13;;;;;;;37.50;27.03;;;3.50;83.60;;;;;;5049438;28;20557;-77
2021/01/25 10:35:39;;;;;;;38.03;27.27;;;3.50;84.20;;;;;;5053468;28;20029;-77
2021/01/25 10:38:05;;;;;;;26.23;22.80;;;3.60;83.90;;;;;;5036433;28;20029;-76
2021/01/25 10:40:30;;;;;;;30.23;24.47;;;3.70;82.50;;;;;;5053499;28;20367;-78
2021/01/25 10:42:56;;;;;;;31.93;24.73;;;3.90;81.80;;;;;;5036723;28;20033;-76
2021/01/25 10:45:22;;;;;;;27.97;21.07;;;4.20;80.90;;;;;;5036918;28;20033;-76
2021/01/25 10:47:48;;;;;;;31.17;22.67;;;4.10;80.20;;;;;;5054194;28;20036;-80
2021/01/25 10:50:14;;;;;;;22.57;19.13;;;3.90;81.90;;;;;;5052569;28;20025;-76
2021/01/25 10:52:40;;;;;;;30.43;22.73;;;3.90;81.30;;;;;;5054650;28;20029;-76
2021/01/25 10:55:06;;;;;;;26.43;20.97;;;3.80;81.80;;;;;;5053482;28;20035;-76
2021/01/25 10:57:33;;;;;;;24.00;19.70;;;3.80;82.00;;;;;;5053373;28;20053;-77
2021/01/25 11:00:00;;;;;;;27.03;20.43;;;3.80;82.10;;;;;;5053193;28;20370;-76
2021/01/25 11:02:26;;;;;;;19.93;17.23;;;4.00;81.60;;;;;;5049752;28;20033;-77
2021/01/25 11:04:52;;;;;;;25.07;18.40;;;4.10;79.60;;;;;;5033180;28;20044;-76
2021/01/25 11:07:17;;;;;;;21.20;17.83;;;4.20;79.20;;;;;;5034116;28;20091;-77
2021/01/25 11:09:43;;;;;;;23.07;16.67;;;4.40;78.10;;;;;;5034536;28;20057;-75
2021/01/25 11:12:08;;;;;;;23.17;17.83;;;4.50;77.40;;;;;;5049785;28;20025;-76
2021/01/25 11:14:34;;;;;;;23.97;17.97;;;4.40;77.60;;;;;;5034206;28;20025;-76
2021/01/25 11:17:00;;;;;;;23.70;19.10;;;4.50;79.00;;;;;;5033421;28;20029;-76
2021/01/25 11:19:25;;;;;;;19.67;16.97;;;4.60;78.60;;;;;;5034765;28;20477;-76
2021/01/25 11:21:51;;;;;;;21.20;16.27;;;4.70;78.20;;;;;;5033475;28;20041;-75
2021/01/25 11:24:16;;;;;;;20.83;17.20;;;4.70;78.20;;;;;;5047783;28;20029;-76
2021/01/25 11:26:42;;;;;;;19.37;16.80;;;4.70;77.20;;;;;;5054325;28;20496;-76
2021/01/25 11:29:08;;;;;;;21.83;17.50;;;4.80;76.00;;;;;;5053287;28;20029;-76
2021/01/25 11:31:34;;;;;;;20.47;16.33;;;4.90;76.00;;;;;;5036446;28;20047;-76
2021/01/25 11:33:59;;;;;;;18.17;14.90;;;5.00;75.60;;;;;;5053025;28;20025;-76
2021/01/25 11:36:25;;;;;;;20.53;14.73;;;5.10;74.30;;;;;;5052465;28;20032;-76
2021/01/25 11:38:51;;;;;;;22.50;15.70;;;5.30;74.30;;;;;;5052967;28;20028;-76
2021/01/25 11:41:16;;;;;;;17.40;12.70;;;5.40;73.60;;;;;;5052811;28;20458;-76
2021/01/25 11:43:42;;;;;;;14.10;11.77;;;5.30;73.50;;;;;;5036433;28;20036;-76
2021/01/25 11:46:08;;;;;;;17.60;13.50;;;5.30;71.90;;;;;;5054190;28;20113;-75
2021/01/25 11:48:33;;;;;;;18.73;13.07;;;5.30;73.40;;;;;;5054153;28;20037;-75
2021/01/25 11:50:59;;;;;;;16.90;13.23;;;5.20;73.00;;;;;;5054158;28;20033;-75
2021/01/25 11:53:24;;;;;;;16.70;13.87;;;5.10;74.20;;;;;;5054187;28;20033;-76
2021/01/25 11:55:50;;;;;;;18.00;14.03;;;5.10;74.40;;;;;;5053691;28;20039;-76
2021/01/25 11:58:15;;;;;;;17.53;13.47;;;5.10;74.50;;;;;;5052577;28;20029;-76
2021/01/25 12:00:41;;;;;;;22.83;14.27;;;5.20;74.50;;;;;;5053665;28;20197;-76
2021/01/25 12:03:07;;;;;;;17.60;13.33;;;5.10;75.10;;;;;;5052711;28;20082;-76
2021/01/25 12:05:32;;;;;;;20.00;13.63;;;5.20;74.80;;;;;;5054091;28;20025;-76
2021/01/25 12:07:59;;;;;;;16.40;13.20;;;5.20;73.80;;;;;;5052565;28;20064;-76
2021/01/25 12:10:24;;;;;;;19.00;13.27;;;5.20;74.10;;;;;;5051572;28;20025;-76
2021/01/25 12:12:50;;;;;;;17.50;13.47;;;5.40;73.10;;;;;;5053350;28;20040;-76
2021/01/25 12:15:16;;;;;;;18.33;12.87;;;5.40;73.40;;;;;;5053601;28;20078;-76
2021/01/25 12:17:41;;;;;;;19.10;14.50;;;5.60;72.90;;;;;;5052688;28;20070;-77
2021/01/25 12:20:07;;;;;;;23.17;16.83;;;5.90;71.30;;;;;;5053697;28;20477;-76
2021/01/25 12:22:33;;;;;;;24.43;15.97;;;5.80;70.90;;;;;;5053940;28;20048;-76
2021/01/25 12:24:59;;;;;;;21.87;14.43;;;5.90;71.60;;;;;;5053505;28;20021;-77
2021/01/25 12:27:24;;;;;;;18.10;13.70;;;6.10;69.30;;;;;;5052457;28;20032;-76
2021/01/25 12:29:50;;;;;;;19.17;13.67;;;6.00;68.30;;;;;;5052644;28;20032;-76
2021/01/25 12:32:15;;;;;;;17.80;13.03;;;6.10;67.10;;;;;;5053291;28;20033;-77
2021/01/25 12:34:42;;;;;;;18.87;12.93;;;6.30;66.70;;;;;;5053540;28;20029;-76